sensor_id;sensor_type;location;lat;lon;timestamp;P1;durP1;ratioP1;P2;durP2;ratioP2
59105;SDS011;44891;50.204;8.132;2022-07-24T00:01:27;10.40;;;8.80;;
59105;SDS011;44891;50.204;8.132;2022-07-24T00:05:29;9.93;;;8.77;;
59105;SDS011;44891;50.204;8.132;2022-07-24T00:09:33;10.30;;;8.73;;
59105;SDS011;44891;50.204;8.132;2022-07-24T00:13:35;10.75;;;8.90;;
59105;SDS011;44891;50.204;8.132;2022-07-24T00:17:37;12.07;;;8.75;;
59105;SDS011;44891;50.204;8.132;2022-07-24T00:21:39;10.75;;;8.85;;
59105;SDS011;44891;50.204;8.132;2022-07-24T00:25:43;10.23;;;8.70;;
59105;SDS011;44891;50.204;8.132;2022-07-24T00:29:45;11.23;;;9.23;;
59105;SDS011;44891;50.204;8.132;2022-07-24T00:33:47;10.40;;;9.25;;
59105;SDS011;44891;50.204;8.132;2022-07-24T00:37:49;10.52;;;9.13;;
59105;SDS011;44891;50.204;8.132;2022-07-24T00:41:53;12.05;;;10.15;;
59105;SDS011;44891;50.204;8.132;2022-07-24T00:45:55;10.60;;;9.52;;
59105;SDS011;44891;50.204;8.132;2022-07-24T00:49:57;10.40;;;9.02;;
59105;SDS011;44891;50.204;8.132;2022-07-24T00:54:01;11.20;;;9.27;;
59105;SDS011;44891;50.204;8.132;2022-07-24T00:58:06;10.40;;;8.88;;
59105;SDS011;44891;50.204;8.132;2022-07-24T01:02:08;11.30;;;9.13;;
59105;SDS011;44891;50.204;8.132;2022-07-24T01:06:12;11.15;;;8.77;;
59105;SDS011;44891;50.204;8.132;2022-07-24T01:10:14;13.50;;;9.20;;
59105;SDS011;44891;50.204;8.132;2022-07-24T01:14:18;10.18;;;9.10;;
59105;SDS011;44891;50.204;8.132;2022-07-24T01:18:20;11.90;;;9.35;;
59105;SDS011;44891;50.204;8.132;2022-07-24T01:22:24;9.82;;;8.80;;
59105;SDS011;44891;50.204;8.132;2022-07-24T01:26:29;11.75;;;9.68;;
59105;SDS011;44891;50.204;8.132;2022-07-24T01:30:31;11.40;;;9.50;;
59105;SDS011;44891;50.204;8.132;2022-07-24T01:34:33;10.90;;;9.52;;
59105;SDS011;44891;50.204;8.132;2022-07-24T01:38:37;10.73;;;9.63;;
59105;SDS011;44891;50.204;8.132;2022-07-24T01:42:39;10.93;;;9.27;;
59105;SDS011;44891;50.204;8.132;2022-07-24T01:46:41;12.32;;;9.60;;
59105;SDS011;44891;50.204;8.132;2022-07-24T01:50:43;10.02;;;9.02;;
59105;SDS011;44891;50.204;8.132;2022-07-24T01:54:46;11.25;;;9.48;;
59105;SDS011;44891;50.204;8.132;2022-07-24T01:58:48;10.30;;;9.23;;
59105;SDS011;44891;50.204;8.132;2022-07-24T02:02:50;11.32;;;9.60;;
59105;SDS011;44891;50.204;8.132;2022-07-24T02:06:53;10.85;;;9.75;;
59105;SDS011;44891;50.204;8.132;2022-07-24T02:10:56;11.57;;;9.40;;
59105;SDS011;44891;50.204;8.132;2022-07-24T02:14:58;9.48;;;8.48;;
59105;SDS011;44891;50.204;8.132;2022-07-24T02:19:00;13.57;;;9.30;;
59105;SDS011;44891;50.204;8.132;2022-07-24T02:23:02;11.35;;;9.27;;
59105;SDS011;44891;50.204;8.132;2022-07-24T02:27:06;10.02;;;8.93;;
59105;SDS011;44891;50.204;8.132;2022-07-24T02:31:08;10.57;;;9.48;;
59105;SDS011;44891;50.204;8.132;2022-07-24T02:35:10;10.55;;;9.10;;
59105;SDS011;44891;50.204;8.132;2022-07-24T02:39:12;10.60;;;9.45;;
59105;SDS011;44891;50.204;8.132;2022-07-24T02:43:16;10.35;;;9.30;;
59105;SDS011;44891;50.204;8.132;2022-07-24T02:47:18;10.65;;;9.40;;
59105;SDS011;44891;50.204;8.132;2022-07-24T02:51:20;10.68;;;8.77;;
59105;SDS011;44891;50.204;8.132;2022-07-24T02:55:22;10.70;;;9.30;;
59105;SDS011;44891;50.204;8.132;2022-07-24T02:59:26;11.43;;;8.60;;
59105;SDS011;44891;50.204;8.132;2022-07-24T03:03:28;10.95;;;8.77;;
59105;SDS011;44891;50.204;8.132;2022-07-24T03:07:30;10.68;;;8.95;;
59105;SDS011;44891;50.204;8.132;2022-07-24T03:11:33;9.85;;;8.82;;
59105;SDS011;44891;50.204;8.132;2022-07-24T03:15:36;10.30;;;9.30;;
59105;SDS011;44891;50.204;8.132;2022-07-24T03:19:38;10.30;;;8.57;;
59105;SDS011;44891;50.204;8.132;2022-07-24T03:23:40;10.60;;;8.85;;
59105;SDS011;44891;50.204;8.132;2022-07-24T03:27:43;10.82;;;8.57;;
59105;SDS011;44891;50.204;8.132;2022-07-24T03:31:47;10.45;;;8.93;;
59105;SDS011;44891;50.204;8.132;2022-07-24T03:35:49;9.70;;;8.60;;
59105;SDS011;44891;50.204;8.132;2022-07-24T03:39:51;10.05;;;8.43;;
59105;SDS011;44891;50.204;8.132;2022-07-24T03:43:53;10.30;;;8.82;;
59105;SDS011;44891;50.204;8.132;2022-07-24T03:47:57;10.23;;;8.32;;
59105;SDS011;44891;50.204;8.132;2022-07-24T03:51:59;9.52;;;8.48;;
59105;SDS011;44891;50.204;8.132;2022-07-24T03:56:03;9.75;;;8.68;;
59105;SDS011;44891;50.204;8.132;2022-07-24T04:00:07;9.27;;;8.38;;
59105;SDS011;44891;50.204;8.132;2022-07-24T04:04:15;9.98;;;8.63;;
59105;SDS011;44891;50.204;8.132;2022-07-24T04:08:17;10.38;;;8.77;;
59105;SDS011;44891;50.204;8.132;2022-07-24T04:12:19;9.77;;;8.77;;
59105;SDS011;44891;50.204;8.132;2022-07-24T04:16:21;10.68;;;9.40;;
59105;SDS011;44891;50.204;8.132;2022-07-24T04:20:24;10.52;;;8.40;;
59105;SDS011;44891;50.204;8.132;2022-07-24T04:24:26;9.85;;;8.32;;
59105;SDS011;44891;50.204;8.132;2022-07-24T04:28:28;10.07;;;8.70;;
59105;SDS011;44891;50.204;8.132;2022-07-24T04:32:31;10.55;;;9.38;;
59105;SDS011;44891;50.204;8.132;2022-07-24T04:36:34;9.68;;;8.48;;
59105;SDS011;44891;50.204;8.132;2022-07-24T04:40:36;9.80;;;8.63;;
59105;SDS011;44891;50.204;8.132;2022-07-24T04:44:38;10.10;;;8.63;;
59105;SDS011;44891;50.204;8.132;2022-07-24T04:48:40;9.32;;;8.20;;
59105;SDS011;44891;50.204;8.132;2022-07-24T04:52:44;10.85;;;8.65;;
59105;SDS011;44891;50.204;8.132;2022-07-24T04:56:46;10.07;;;8.52;;
59105;SDS011;44891;50.204;8.132;2022-07-24T05:00:48;8.88;;;8.02;;
59105;SDS011;44891;50.204;8.132;2022-07-24T05:04:50;9.95;;;7.85;;
59105;SDS011;44891;50.204;8.132;2022-07-24T05:08:54;10.13;;;8.70;;
59105;SDS011;44891;50.204;8.132;2022-07-24T05:12:56;10.82;;;8.13;;
59105;SDS011;44891;50.204;8.132;2022-07-24T05:16:58;9.43;;;8.35;;
59105;SDS011;44891;50.204;8.132;2022-07-24T05:21:00;10.48;;;8.20;;
59105;SDS011;44891;50.204;8.132;2022-07-24T05:25:04;10.88;;;8.60;;
59105;SDS011;44891;50.204;8.132;2022-07-24T05:29:07;9.55;;;8.60;;
59105;SDS011;44891;50.204;8.132;2022-07-24T05:33:09;9.60;;;8.02;;
59105;SDS011;44891;50.204;8.132;2022-07-24T05:37:12;9.15;;;8.25;;
59105;SDS011;44891;50.204;8.132;2022-07-24T05:41:15;11.45;;;8.32;;
59105;SDS011;44891;50.204;8.132;2022-07-24T05:45:17;8.95;;;8.05;;
59105;SDS011;44891;50.204;8.132;2022-07-24T05:49:19;9.20;;;8.30;;
59105;SDS011;44891;50.204;8.132;2022-07-24T05:53:22;9.13;;;8.23;;
59105;SDS011;44891;50.204;8.132;2022-07-24T05:57:25;9.10;;;8.20;;
59105;SDS011;44891;50.204;8.132;2022-07-24T06:01:28;10.38;;;8.05;;
59105;SDS011;44891;50.204;8.132;2022-07-24T06:05:30;9.63;;;8.65;;
59105;SDS011;44891;50.204;8.132;2022-07-24T06:09:32;9.80;;;8.10;;
59105;SDS011;44891;50.204;8.132;2022-07-24T06:13:35;9.60;;;8.70;;
59105;SDS011;44891;50.204;8.132;2022-07-24T06:17:37;9.02;;;8.13;;
59105;SDS011;44891;50.204;8.132;2022-07-24T06:21:39;10.02;;;8.30;;
59105;SDS011;44891;50.204;8.132;2022-07-24T06:25:42;10.70;;;8.80;;
59105;SDS011;44891;50.204;8.132;2022-07-24T06:29:45;10.20;;;8.55;;
59105;SDS011;44891;50.204;8.132;2022-07-24T06:33:47;9.82;;;8.38;;
59105;SDS011;44891;50.204;8.132;2022-07-24T06:37:49;11.48;;;8.10;;
59105;SDS011;44891;50.204;8.132;2022-07-24T06:41:52;9.82;;;7.93;;
59105;SDS011;44891;50.204;8.132;2022-07-24T06:46:04;9.10;;;7.97;;
59105;SDS011;44891;50.204;8.132;2022-07-24T06:50:07;10.75;;;7.80;;
59105;SDS011;44891;50.204;8.132;2022-07-24T06:54:10;8.55;;;7.55;;
59105;SDS011;44891;50.204;8.132;2022-07-24T06:58:13;8.85;;;7.97;;
59105;SDS011;44891;50.204;8.132;2022-07-24T07:02:16;8.88;;;7.53;;
59105;SDS011;44891;50.204;8.132;2022-07-24T07:06:18;9.55;;;7.93;;
59105;SDS011;44891;50.204;8.132;2022-07-24T07:10:20;8.68;;;7.88;;
59105;SDS011;44891;50.204;8.132;2022-07-24T07:14:23;9.90;;;7.80;;
59105;SDS011;44891;50.204;8.132;2022-07-24T07:18:27;8.23;;;6.72;;
59105;SDS011;44891;50.204;8.132;2022-07-24T07:22:29;8.10;;;7.30;;
59105;SDS011;44891;50.204;8.132;2022-07-24T07:26:31;9.18;;;7.35;;
59105;SDS011;44891;50.204;8.132;2022-07-24T07:30:33;9.18;;;7.00;;
59105;SDS011;44891;50.204;8.132;2022-07-24T07:34:37;8.15;;;7.35;;
59105;SDS011;44891;50.204;8.132;2022-07-24T07:38:39;8.77;;;7.57;;
59105;SDS011;44891;50.204;8.132;2022-07-24T07:42:41;8.57;;;7.22;;
59105;SDS011;44891;50.204;8.132;2022-07-24T07:46:43;7.88;;;7.03;;
59105;SDS011;44891;50.204;8.132;2022-07-24T07:50:46;8.18;;;6.85;;
59105;SDS011;44891;50.204;8.132;2022-07-24T07:54:49;7.63;;;6.82;;
59105;SDS011;44891;50.204;8.132;2022-07-24T07:58:51;8.82;;;7.38;;
59105;SDS011;44891;50.204;8.132;2022-07-24T08:02:53;7.18;;;6.47;;
59105;SDS011;44891;50.204;8.132;2022-07-24T08:06:57;7.50;;;6.80;;
59105;SDS011;44891;50.204;8.132;2022-07-24T08:10:59;7.88;;;7.07;;
59105;SDS011;44891;50.204;8.132;2022-07-24T08:15:01;7.68;;;6.55;;
59105;SDS011;44891;50.204;8.132;2022-07-24T08:19:04;8.18;;;7.35;;
59105;SDS011;44891;50.204;8.132;2022-07-24T08:23:08;8.98;;;7.15;;
59105;SDS011;44891;50.204;8.132;2022-07-24T08:27:10;7.72;;;7.03;;
59105;SDS011;44891;50.204;8.132;2022-07-24T08:31:12;8.82;;;7.30;;
59105;SDS011;44891;50.204;8.132;2022-07-24T08:35:14;8.13;;;6.90;;
59105;SDS011;44891;50.204;8.132;2022-07-24T08:39:18;7.80;;;7.10;;
59105;SDS011;44891;50.204;8.132;2022-07-24T08:43:20;9.15;;;6.80;;
59105;SDS011;44891;50.204;8.132;2022-07-24T08:47:22;7.45;;;6.68;;
59105;SDS011;44891;50.204;8.132;2022-07-24T08:51:28;7.95;;;6.80;;
59105;SDS011;44891;50.204;8.132;2022-07-24T08:55:35;7.93;;;6.60;;
59105;SDS011;44891;50.204;8.132;2022-07-24T08:59:37;7.43;;;6.43;;
59105;SDS011;44891;50.204;8.132;2022-07-24T09:03:40;7.18;;;6.47;;
59105;SDS011;44891;50.204;8.132;2022-07-24T09:07:43;9.70;;;7.03;;
59105;SDS011;44891;50.204;8.132;2022-07-24T09:11:47;7.60;;;6.80;;
59105;SDS011;44891;50.204;8.132;2022-07-24T09:15:49;8.20;;;6.82;;
59105;SDS011;44891;50.204;8.132;2022-07-24T09:19:52;7.75;;;6.95;;
59105;SDS011;44891;50.204;8.132;2022-07-24T09:23:55;8.60;;;6.93;;
59105;SDS011;44891;50.204;8.132;2022-07-24T09:28:04;8.02;;;7.13;;
59105;SDS011;44891;50.204;8.132;2022-07-24T09:32:06;7.47;;;6.70;;
59105;SDS011;44891;50.204;8.132;2022-07-24T09:36:12;9.20;;;7.00;;
59105;SDS011;44891;50.204;8.132;2022-07-24T09:40:15;18.00;;;15.38;;
59105;SDS011;44891;50.204;8.132;2022-07-24T09:44:20;7.90;;;6.90;;
59105;SDS011;44891;50.204;8.132;2022-07-24T09:48:24;7.68;;;6.93;;
59105;SDS011;44891;50.204;8.132;2022-07-24T09:52:32;8.00;;;6.60;;
59105;SDS011;44891;50.204;8.132;2022-07-24T09:56:35;9.32;;;7.15;;
59105;SDS011;44891;50.204;8.132;2022-07-24T10:00:38;8.23;;;6.80;;
59105;SDS011;44891;50.204;8.132;2022-07-24T10:04:44;10.35;;;7.05;;
59105;SDS011;44891;50.204;8.132;2022-07-24T10:08:48;7.40;;;6.70;;
59105;SDS011;44891;50.204;8.132;2022-07-24T10:12:51;7.35;;;6.63;;
59105;SDS011;44891;50.204;8.132;2022-07-24T10:16:57;7.28;;;6.60;;
59105;SDS011;44891;50.204;8.132;2022-07-24T10:25:10;7.57;;;6.60;;
59105;SDS011;44891;50.204;8.132;2022-07-24T10:29:19;7.30;;;6.53;;
59105;SDS011;44891;50.204;8.132;2022-07-24T10:33:23;7.05;;;6.35;;
59105;SDS011;44891;50.204;8.132;2022-07-24T10:37:28;8.95;;;7.10;;
59105;SDS011;44891;50.204;8.132;2022-07-24T10:41:34;7.70;;;6.90;;
59105;SDS011;44891;50.204;8.132;2022-07-24T10:45:37;10.40;;;6.80;;
59105;SDS011;44891;50.204;8.132;2022-07-24T10:49:42;7.47;;;6.78;;
59105;SDS011;44891;50.204;8.132;2022-07-24T10:53:49;7.47;;;6.75;;
59105;SDS011;44891;50.204;8.132;2022-07-24T10:57:54;8.45;;;7.15;;
59105;SDS011;44891;50.204;8.132;2022-07-24T11:02:01;8.45;;;7.05;;
59105;SDS011;44891;50.204;8.132;2022-07-24T11:06:39;9.77;;;7.13;;
59105;SDS011;44891;50.204;8.132;2022-07-24T11:10:43;8.45;;;6.88;;
59105;SDS011;44891;50.204;8.132;2022-07-24T11:14:46;8.45;;;7.10;;
59105;SDS011;44891;50.204;8.132;2022-07-24T11:23:30;9.00;;;6.93;;
59105;SDS011;44891;50.204;8.132;2022-07-24T11:27:46;8.40;;;7.40;;
59105;SDS011;44891;50.204;8.132;2022-07-24T11:31:50;8.32;;;7.47;;
59105;SDS011;44891;50.204;8.132;2022-07-24T11:35:55;9.10;;;6.90;;
59105;SDS011;44891;50.204;8.132;2022-07-24T11:39:59;7.95;;;7.15;;
59105;SDS011;44891;50.204;8.132;2022-07-24T11:44:01;8.02;;;7.18;;
59105;SDS011;44891;50.204;8.132;2022-07-24T11:48:03;8.57;;;7.20;;
59105;SDS011;44891;50.204;8.132;2022-07-24T11:52:06;8.07;;;7.13;;
59105;SDS011;44891;50.204;8.132;2022-07-24T11:56:10;9.05;;;7.28;;
59105;SDS011;44891;50.204;8.132;2022-07-24T12:00:13;7.60;;;6.80;;
59105;SDS011;44891;50.204;8.132;2022-07-24T12:04:18;7.53;;;6.78;;
59105;SDS011;44891;50.204;8.132;2022-07-24T12:08:22;7.90;;;7.07;;
59105;SDS011;44891;50.204;8.132;2022-07-24T12:12:29;7.63;;;6.90;;
59105;SDS011;44891;50.204;8.132;2022-07-24T12:16:32;8.25;;;7.45;;
59105;SDS011;44891;50.204;8.132;2022-07-24T12:20:35;8.35;;;7.50;;
59105;SDS011;44891;50.204;8.132;2022-07-24T12:24:38;7.78;;;6.93;;
59105;SDS011;44891;50.204;8.132;2022-07-24T12:28:42;7.43;;;6.68;;
59105;SDS011;44891;50.204;8.132;2022-07-24T12:32:54;7.85;;;6.47;;
59105;SDS011;44891;50.204;8.132;2022-07-24T12:37:13;8.85;;;7.10;;
59105;SDS011;44891;50.204;8.132;2022-07-24T12:41:17;7.43;;;6.70;;
59105;SDS011;44891;50.204;8.132;2022-07-24T12:45:23;7.47;;;6.65;;
59105;SDS011;44891;50.204;8.132;2022-07-24T12:49:28;7.30;;;6.68;;
59105;SDS011;44891;50.204;8.132;2022-07-24T12:53:42;7.65;;;6.65;;
59105;SDS011;44891;50.204;8.132;2022-07-24T12:57:44;7.25;;;6.55;;
59105;SDS011;44891;50.204;8.132;2022-07-24T13:01:48;7.55;;;6.80;;
59105;SDS011;44891;50.204;8.132;2022-07-24T13:05:54;8.15;;;7.18;;
59105;SDS011;44891;50.204;8.132;2022-07-24T13:09:57;7.80;;;7.00;;
59105;SDS011;44891;50.204;8.132;2022-07-24T13:13:59;7.82;;;7.03;;
59105;SDS011;44891;50.204;8.132;2022-07-24T13:18:03;9.57;;;7.07;;
59105;SDS011;44891;50.204;8.132;2022-07-24T13:22:05;7.72;;;7.00;;
59105;SDS011;44891;50.204;8.132;2022-07-24T13:26:08;9.45;;;6.88;;
59105;SDS011;44891;50.204;8.132;2022-07-24T13:30:10;7.50;;;6.80;;
59105;SDS011;44891;50.204;8.132;2022-07-24T13:34:15;7.07;;;6.40;;
59105;SDS011;44891;50.204;8.132;2022-07-24T13:38:17;7.55;;;6.50;;
59105;SDS011;44891;50.204;8.132;2022-07-24T13:42:19;7.15;;;6.45;;
59105;SDS011;44891;50.204;8.132;2022-07-24T13:46:21;7.68;;;6.28;;
59105;SDS011;44891;50.204;8.132;2022-07-24T13:50:25;6.70;;;6.10;;
59105;SDS011;44891;50.204;8.132;2022-07-24T13:54:28;7.82;;;6.47;;
59105;SDS011;44891;50.204;8.132;2022-07-24T13:58:30;7.20;;;6.60;;
59105;SDS011;44891;50.204;8.132;2022-07-24T14:02:32;8.02;;;7.10;;
59105;SDS011;44891;50.204;8.132;2022-07-24T14:06:35;7.97;;;7.07;;
59105;SDS011;44891;50.204;8.132;2022-07-24T14:10:38;7.40;;;6.60;;
59105;SDS011;44891;50.204;8.132;2022-07-24T14:14:40;7.85;;;6.68;;
59105;SDS011;44891;50.204;8.132;2022-07-24T14:18:43;7.45;;;6.65;;
59105;SDS011;44891;50.204;8.132;2022-07-24T14:22:46;8.07;;;7.28;;
59105;SDS011;44891;50.204;8.132;2022-07-24T14:26:48;8.90;;;7.20;;
59105;SDS011;44891;50.204;8.132;2022-07-24T14:30:51;7.40;;;6.70;;
59105;SDS011;44891;50.204;8.132;2022-07-24T14:34:53;7.28;;;6.55;;
59105;SDS011;44891;50.204;8.132;2022-07-24T14:38:56;7.70;;;6.90;;
59105;SDS011;44891;50.204;8.132;2022-07-24T14:42:58;7.97;;;6.93;;
59105;SDS011;44891;50.204;8.132;2022-07-24T14:47:00;7.47;;;6.78;;
59105;SDS011;44891;50.204;8.132;2022-07-24T14:51:05;7.32;;;6.60;;
59105;SDS011;44891;50.204;8.132;2022-07-24T14:55:08;7.70;;;6.90;;
59105;SDS011;44891;50.204;8.132;2022-07-24T14:59:10;9.65;;;7.07;;
59105;SDS011;44891;50.204;8.132;2022-07-24T15:03:13;7.93;;;7.13;;
59105;SDS011;44891;50.204;8.132;2022-07-24T15:07:15;7.55;;;6.80;;
59105;SDS011;44891;50.204;8.132;2022-07-24T15:11:19;7.22;;;6.53;;
59105;SDS011;44891;50.204;8.132;2022-07-24T15:15:22;8.30;;;6.88;;
59105;SDS011;44891;50.204;8.132;2022-07-24T15:19:24;8.27;;;6.50;;
59105;SDS011;44891;50.204;8.132;2022-07-24T15:23:27;8.27;;;6.75;;
59105;SDS011;44891;50.204;8.132;2022-07-24T15:27:30;8.63;;;6.68;;
59105;SDS011;44891;50.204;8.132;2022-07-24T15:31:32;7.22;;;6.53;;
59105;SDS011;44891;50.204;8.132;2022-07-24T15:35:34;8.77;;;6.43;;
59105;SDS011;44891;50.204;8.132;2022-07-24T15:39:37;8.32;;;6.95;;
59105;SDS011;44891;50.204;8.132;2022-07-24T15:43:40;8.25;;;6.47;;
59105;SDS011;44891;50.204;8.132;2022-07-24T15:47:42;8.60;;;7.25;;
59105;SDS011;44891;50.204;8.132;2022-07-24T15:51:44;8.02;;;6.43;;
59105;SDS011;44891;50.204;8.132;2022-07-24T15:55:46;7.68;;;6.88;;
59105;SDS011;44891;50.204;8.132;2022-07-24T15:59:50;7.68;;;6.97;;
59105;SDS011;44891;50.204;8.132;2022-07-24T16:03:52;7.90;;;7.10;;
59105;SDS011;44891;50.204;8.132;2022-07-24T16:07:54;8.05;;;6.93;;
59105;SDS011;44891;50.204;8.132;2022-07-24T16:11:56;7.63;;;6.70;;
59105;SDS011;44891;50.204;8.132;2022-07-24T16:16:00;7.95;;;6.38;;
59105;SDS011;44891;50.204;8.132;2022-07-24T16:20:03;7.53;;;6.72;;
59105;SDS011;44891;50.204;8.132;2022-07-24T16:24:07;8.60;;;6.85;;
59105;SDS011;44891;50.204;8.132;2022-07-24T16:28:10;9.18;;;7.45;;
59105;SDS011;44891;50.204;8.132;2022-07-24T16:32:13;7.68;;;6.88;;
59105;SDS011;44891;50.204;8.132;2022-07-24T16:36:15;7.55;;;6.85;;
59105;SDS011;44891;50.204;8.132;2022-07-24T16:40:17;8.02;;;7.10;;
59105;SDS011;44891;50.204;8.132;2022-07-24T16:44:20;10.23;;;7.28;;
59105;SDS011;44891;50.204;8.132;2022-07-24T16:48:23;8.00;;;6.85;;
59105;SDS011;44891;50.204;8.132;2022-07-24T16:52:25;8.00;;;7.00;;
59105;SDS011;44891;50.204;8.132;2022-07-24T16:56:27;8.05;;;7.25;;
59105;SDS011;44891;50.204;8.132;2022-07-24T17:00:29;7.90;;;7.07;;
59105;SDS011;44891;50.204;8.132;2022-07-24T17:04:33;8.85;;;7.20;;
59105;SDS011;44891;50.204;8.132;2022-07-24T17:08:35;7.90;;;7.18;;
59105;SDS011;44891;50.204;8.132;2022-07-24T17:12:37;8.63;;;7.72;;
59105;SDS011;44891;50.204;8.132;2022-07-24T17:16:39;8.35;;;7.35;;
59105;SDS011;44891;50.204;8.132;2022-07-24T17:20:43;8.07;;;7.28;;
59105;SDS011;44891;50.204;8.132;2022-07-24T17:24:46;8.48;;;7.63;;
59105;SDS011;44891;50.204;8.132;2022-07-24T17:28:50;11.38;;;7.95;;
59105;SDS011;44891;50.204;8.132;2022-07-24T17:32:52;9.05;;;7.75;;
59105;SDS011;44891;50.204;8.132;2022-07-24T17:36:55;9.70;;;7.55;;
59105;SDS011;44891;50.204;8.132;2022-07-24T17:40:57;9.02;;;7.65;;
59105;SDS011;44891;50.204;8.132;2022-07-24T17:44:59;8.77;;;7.18;;
59105;SDS011;44891;50.204;8.132;2022-07-24T17:49:02;8.35;;;7.07;;
59105;SDS011;44891;50.204;8.132;2022-07-24T17:53:05;8.60;;;7.72;;
59105;SDS011;44891;50.204;8.132;2022-07-24T17:57:07;8.60;;;7.70;;
59105;SDS011;44891;50.204;8.132;2022-07-24T18:01:10;9.20;;;8.20;;
59105;SDS011;44891;50.204;8.132;2022-07-24T18:05:12;10.13;;;7.68;;
59105;SDS011;44891;50.204;8.132;2022-07-24T18:09:16;9.05;;;7.45;;
59105;SDS011;44891;50.204;8.132;2022-07-24T18:13:18;8.70;;;7.65;;
59105;SDS011;44891;50.204;8.132;2022-07-24T18:17:20;8.20;;;7.50;;
59105;SDS011;44891;50.204;8.132;2022-07-24T18:21:22;8.15;;;7.30;;
59105;SDS011;44891;50.204;8.132;2022-07-24T18:25:26;8.07;;;7.28;;
59105;SDS011;44891;50.204;8.132;2022-07-24T18:29:29;8.65;;;7.60;;
59105;SDS011;44891;50.204;8.132;2022-07-24T18:33:31;9.23;;;7.50;;
59105;SDS011;44891;50.204;8.132;2022-07-24T18:37:33;8.85;;;7.30;;
59105;SDS011;44891;50.204;8.132;2022-07-24T18:41:37;8.10;;;7.32;;
59105;SDS011;44891;50.204;8.132;2022-07-24T18:45:39;8.18;;;7.32;;
59105;SDS011;44891;50.204;8.132;2022-07-24T18:49:42;8.93;;;6.90;;
59105;SDS011;44891;50.204;8.132;2022-07-24T18:53:44;8.82;;;7.43;;
59105;SDS011;44891;50.204;8.132;2022-07-24T18:57:49;8.90;;;7.80;;
59105;SDS011;44891;50.204;8.132;2022-07-24T19:01:51;8.63;;;7.43;;
59105;SDS011;44891;50.204;8.132;2022-07-24T19:05:53;8.52;;;7.35;;
59105;SDS011;44891;50.204;8.132;2022-07-24T19:09:55;7.72;;;7.03;;
59105;SDS011;44891;50.204;8.132;2022-07-24T19:13:58;10.68;;;7.35;;
59105;SDS011;44891;50.204;8.132;2022-07-24T19:18:02;8.10;;;7.30;;
59105;SDS011;44891;50.204;8.132;2022-07-24T19:22:04;8.30;;;7.22;;
59105;SDS011;44891;50.204;8.132;2022-07-24T19:26:06;8.82;;;7.10;;
59105;SDS011;44891;50.204;8.132;2022-07-24T19:30:11;9.90;;;7.45;;
59105;SDS011;44891;50.204;8.132;2022-07-24T19:34:13;9.35;;;7.00;;
59105;SDS011;44891;50.204;8.132;2022-07-24T19:38:15;9.70;;;7.88;;
59105;SDS011;44891;50.204;8.132;2022-07-24T19:42:17;12.35;;;7.38;;
59105;SDS011;44891;50.204;8.132;2022-07-24T19:46:21;9.23;;;7.55;;
59105;SDS011;44891;50.204;8.132;2022-07-24T19:50:23;10.43;;;8.10;;
59105;SDS011;44891;50.204;8.132;2022-07-24T19:54:26;10.02;;;7.35;;
59105;SDS011;44891;50.204;8.132;2022-07-24T19:58:28;8.68;;;7.53;;
59105;SDS011;44891;50.204;8.132;2022-07-24T20:02:31;8.50;;;7.68;;
59105;SDS011;44891;50.204;8.132;2022-07-24T20:06:34;9.77;;;7.60;;
59105;SDS011;44891;50.204;8.132;2022-07-24T20:10:36;13.38;;;7.65;;
59105;SDS011;44891;50.204;8.132;2022-07-24T20:14:38;10.65;;;7.45;;
59105;SDS011;44891;50.204;8.132;2022-07-24T20:18:41;9.65;;;7.82;;
59105;SDS011;44891;50.204;8.132;2022-07-24T20:22:43;10.63;;;7.93;;
59105;SDS011;44891;50.204;8.132;2022-07-24T20:26:45;11.30;;;7.65;;
59105;SDS011;44891;50.204;8.132;2022-07-24T20:30:48;9.77;;;7.68;;
59105;SDS011;44891;50.204;8.132;2022-07-24T20:34:51;10.60;;;7.80;;
59105;SDS011;44891;50.204;8.132;2022-07-24T20:38:53;12.77;;;7.80;;
59105;SDS011;44891;50.204;8.132;2022-07-24T20:42:55;9.57;;;7.95;;
59105;SDS011;44891;50.204;8.132;2022-07-24T20:46:57;8.93;;;7.97;;
59105;SDS011;44891;50.204;8.132;2022-07-24T20:51:01;9.10;;;7.75;;
59105;SDS011;44891;50.204;8.132;2022-07-24T20:55:03;10.70;;;7.97;;
59105;SDS011;44891;50.204;8.132;2022-07-24T20:59:06;11.15;;;8.40;;
59105;SDS011;44891;50.204;8.132;2022-07-24T21:03:08;10.20;;;7.90;;
59105;SDS011;44891;50.204;8.132;2022-07-24T21:07:11;9.13;;;7.93;;
59105;SDS011;44891;50.204;8.132;2022-07-24T21:11:14;12.57;;;7.70;;
59105;SDS011;44891;50.204;8.132;2022-07-24T21:15:16;9.45;;;7.70;;
59105;SDS011;44891;50.204;8.132;2022-07-24T21:19:18;9.70;;;8.13;;
59105;SDS011;44891;50.204;8.132;2022-07-24T21:23:22;9.15;;;7.85;;
59105;SDS011;44891;50.204;8.132;2022-07-24T21:27:24;9.35;;;8.30;;
59105;SDS011;44891;50.204;8.132;2022-07-24T21:31:26;10.80;;;8.05;;
59105;SDS011;44891;50.204;8.132;2022-07-24T21:35:28;11.30;;;8.23;;
59105;SDS011;44891;50.204;8.132;2022-07-24T21:39:32;13.43;;;8.50;;
59105;SDS011;44891;50.204;8.132;2022-07-24T21:43:34;9.82;;;8.25;;
59105;SDS011;44891;50.204;8.132;2022-07-24T21:47:36;10.52;;;8.25;;
59105;SDS011;44891;50.204;8.132;2022-07-24T21:51:38;11.18;;;9.00;;
59105;SDS011;44891;50.204;8.132;2022-07-24T21:55:41;14.80;;;8.32;;
59105;SDS011;44891;50.204;8.132;2022-07-24T21:59:43;14.15;;;8.82;;
59105;SDS011;44891;50.204;8.132;2022-07-24T22:03:45;12.18;;;9.20;;
59105;SDS011;44891;50.204;8.132;2022-07-24T22:07:48;12.57;;;8.50;;
59105;SDS011;44891;50.204;8.132;2022-07-24T22:11:51;10.82;;;9.10;;
59105;SDS011;44891;50.204;8.132;2022-07-24T22:15:53;10.20;;;8.35;;
59105;SDS011;44891;50.204;8.132;2022-07-24T22:19:55;11.63;;;8.48;;
59105;SDS011;44891;50.204;8.132;2022-07-24T22:23:58;11.05;;;8.50;;
59105;SDS011;44891;50.204;8.132;2022-07-24T22:28:01;11.25;;;8.50;;
59105;SDS011;44891;50.204;8.132;2022-07-24T22:32:03;10.73;;;8.98;;
59105;SDS011;44891;50.204;8.132;2022-07-24T22:36:06;10.95;;;8.82;;
59105;SDS011;44891;50.204;8.132;2022-07-24T22:40:10;10.63;;;9.13;;
59105;SDS011;44891;50.204;8.132;2022-07-24T22:44:15;11.90;;;8.90;;
59105;SDS011;44891;50.204;8.132;2022-07-24T22:48:17;11.05;;;9.25;;
59105;SDS011;44891;50.204;8.132;2022-07-24T22:52:19;9.80;;;8.68;;
59105;SDS011;44891;50.204;8.132;2022-07-24T22:56:22;12.32;;;9.07;;
59105;SDS011;44891;50.204;8.132;2022-07-24T23:00:30;12.75;;;9.20;;
59105;SDS011;44891;50.204;8.132;2022-07-24T23:04:32;11.25;;;8.95;;
59105;SDS011;44891;50.204;8.132;2022-07-24T23:08:34;10.95;;;9.38;;
59105;SDS011;44891;50.204;8.132;2022-07-24T23:12:36;12.98;;;9.05;;
59105;SDS011;44891;50.204;8.132;2022-07-24T23:16:40;12.10;;;9.18;;
59105;SDS011;44891;50.204;8.132;2022-07-24T23:20:42;10.02;;;8.85;;
59105;SDS011;44891;50.204;8.132;2022-07-24T23:24:44;11.48;;;9.63;;
59105;SDS011;44891;50.204;8.132;2022-07-24T23:28:46;10.98;;;8.95;;
59105;SDS011;44891;50.204;8.132;2022-07-24T23:32:50;10.13;;;8.82;;
59105;SDS011;44891;50.204;8.132;2022-07-24T23:36:52;10.68;;;9.13;;
59105;SDS011;44891;50.204;8.132;2022-07-24T23:40:54;12.63;;;9.32;;
59105;SDS011;44891;50.204;8.132;2022-07-24T23:44:56;10.10;;;8.80;;
59105;SDS011;44891;50.204;8.132;2022-07-24T23:49:00;10.60;;;8.77;;
59105;SDS011;44891;50.204;8.132;2022-07-24T23:53:02;10.43;;;9.05;;
59105;SDS011;44891;50.204;8.132;2022-07-24T23:57:04;11.40;;;9.18;;
